createdAt,value
2018-07-28T00:01:55.418Z,42.83
2018-07-28T00:04:00.269Z,42.92
2018-07-28T00:06:05.537Z,42.34
2018-07-28T00:08:10.349Z,42.43
2018-07-28T00:10:14.831Z,42.58
2018-07-28T00:12:19.673Z,43.15
2018-07-28T00:14:24.382Z,43.40
2018-07-28T00:16:29.155Z,42.82
2018-07-28T00:18:34.088Z,43.97
2018-07-28T00:20:38.926Z,43.56
2018-07-28T00:22:43.759Z,43.16
2018-07-28T00:24:48.533Z,43.70
2018-07-28T00:26:53.396Z,43.68
2018-07-28T00:28:58.326Z,42.96
2018-07-28T00:31:03.501Z,44.03
2018-07-28T00:33:08.333Z,43.44
2018-07-28T00:35:13.176Z,43.42
2018-07-28T00:37:17.963Z,43.67
2018-07-28T00:39:22.650Z,43.19
2018-07-28T00:41:27.576Z,43.77
2018-07-28T00:43:32.606Z,43.82
2018-07-28T00:45:37.532Z,43.87
2018-07-28T00:47:42.372Z,43.87
2018-07-28T00:49:47.155Z,44.10
2018-07-28T00:51:52.352Z,44.35
2018-07-28T00:53:57.251Z,41.06
2018-07-28T00:56:02.031Z,41.15
2018-07-28T00:58:06.889Z,41.70
2018-07-28T01:00:11.754Z,41.88
2018-07-28T01:02:16.616Z,42.00
2018-07-28T01:04:21.372Z,43.30
2018-07-28T01:06:26.194Z,42.25
2018-07-28T01:08:31.002Z,42.20
2018-07-28T01:10:35.799Z,41.55
2018-07-28T01:12:40.581Z,43.33
2018-07-28T01:14:45.401Z,43.46
2018-07-28T01:16:50.187Z,42.79
2018-07-28T01:18:55.286Z,43.15
2018-07-28T01:21:00.074Z,43.78
2018-07-28T01:23:04.896Z,43.90
2018-07-28T01:25:11.391Z,43.31
2018-07-28T01:27:16.100Z,44.06
2018-07-28T01:29:20.830Z,44.96
2018-07-28T01:31:25.744Z,45.17
2018-07-28T01:33:30.494Z,45.24
2018-07-28T01:35:35.326Z,45.12
2018-07-28T01:37:40.151Z,45.23
2018-07-28T01:39:44.879Z,44.58
2018-07-28T01:41:49.671Z,44.51
2018-07-28T01:43:54.413Z,44.97
2018-07-28T01:45:59.241Z,45.69
2018-07-28T01:48:04.049Z,45.62
2018-07-28T01:50:10.162Z,45.44
2018-07-28T01:52:15.898Z,45.51
2018-07-28T01:54:20.715Z,44.89
2018-07-28T01:56:25.508Z,46.60
2018-07-28T01:58:31.114Z,45.43
2018-07-28T02:00:35.888Z,46.36
2018-07-28T02:02:40.841Z,46.08
2018-07-28T02:04:45.619Z,47.39
2018-07-28T02:06:50.392Z,46.29
2018-07-28T02:08:55.281Z,46.45
2018-07-28T02:11:00.122Z,45.97
2018-07-28T02:13:04.889Z,46.62
2018-07-28T02:15:09.792Z,47.36
2018-07-28T02:17:14.784Z,47.34
2018-07-28T02:19:20.070Z,46.65
2018-07-28T02:21:24.822Z,46.36
2018-07-28T02:23:29.553Z,47.96
2018-07-28T02:25:34.283Z,47.01
2018-07-28T02:27:39.022Z,47.15
2018-07-28T02:29:43.761Z,47.16
2018-07-28T02:31:48.499Z,47.00
2018-07-28T02:33:53.225Z,47.76
2018-07-28T02:35:57.933Z,47.72
2018-07-28T02:38:02.814Z,48.52
2018-07-28T02:40:08.066Z,48.29
2018-07-28T02:42:12.890Z,48.63
2018-07-28T02:44:17.601Z,47.97
2018-07-28T02:46:22.411Z,48.66
2018-07-28T02:48:27.115Z,48.32
2018-07-28T02:50:31.840Z,47.20
2018-07-28T02:52:36.736Z,46.42
2018-07-28T02:54:41.485Z,46.00
2018-07-28T02:56:46.164Z,47.56
2018-07-28T02:58:50.894Z,46.60
2018-07-28T03:00:55.765Z,46.92
2018-07-28T03:03:00.503Z,48.00
2018-07-28T03:05:06.257Z,48.00
2018-07-28T03:07:10.997Z,48.25
2018-07-28T03:09:15.785Z,48.72
2018-07-28T03:11:20.647Z,49.30
2018-07-28T03:13:25.498Z,49.62
2018-07-28T03:15:32.087Z,49.42
2018-07-28T03:17:36.918Z,49.68
2018-07-28T03:19:42.049Z,50.71
2018-07-28T03:21:47.396Z,49.92
2018-07-28T03:23:53.763Z,50.36
2018-07-28T03:25:58.484Z,51.54
2018-07-28T03:28:03.221Z,52.29
2018-07-28T03:30:08.137Z,51.86
2018-07-28T03:32:13.040Z,51.47
2018-07-28T03:34:17.813Z,52.02
2018-07-28T03:36:22.656Z,52.96
2018-07-28T03:38:27.442Z,53.30
2018-07-28T03:40:32.237Z,53.90
2018-07-28T03:42:37.035Z,53.88
2018-07-28T03:44:41.845Z,53.73
2018-07-28T03:46:46.771Z,54.26
2018-07-28T03:48:51.600Z,54.24
2018-07-28T03:50:56.414Z,54.59
2018-07-28T03:53:01.233Z,54.93
2018-07-28T03:55:07.604Z,55.92
2018-07-28T03:57:12.425Z,55.92
2018-07-28T03:59:17.220Z,55.11
2018-07-28T04:01:22.168Z,56.36
2018-07-28T04:03:26.992Z,56.23
2018-07-28T04:05:31.745Z,56.49
2018-07-28T04:07:36.511Z,57.26
2018-07-28T04:09:41.237Z,56.86
2018-07-28T04:11:45.949Z,56.46
2018-07-28T04:13:50.639Z,57.30
2018-07-28T04:18:06.963Z,56.51
2018-07-28T04:20:12.025Z,57.09
2018-07-28T04:22:18.366Z,57.97
2018-07-28T04:24:23.677Z,57.92
2018-07-28T04:26:28.835Z,58.02
2018-07-28T04:28:33.798Z,58.32
2018-07-28T04:30:41.697Z,58.90
2018-07-28T04:32:46.706Z,58.60
2018-07-28T04:34:51.415Z,59.15
2018-07-28T04:36:56.227Z,59.19
2018-07-28T04:39:01.033Z,59.16
2018-07-28T04:41:06.410Z,59.63
2018-07-28T04:43:11.284Z,58.88
2018-07-28T04:45:16.048Z,59.65
2018-07-28T04:47:20.848Z,59.41
2018-07-28T04:49:25.582Z,59.15
2018-07-28T04:51:31.064Z,59.40
2018-07-28T04:53:37.210Z,58.78
2018-07-28T04:55:42.132Z,58.53
2018-07-28T04:57:46.860Z,59.23
2018-07-28T04:59:54.118Z,58.81
2018-07-28T05:01:58.930Z,58.68
2018-07-28T05:04:03.808Z,58.62
2018-07-28T05:06:08.521Z,59.10
2018-07-28T05:08:13.332Z,59.03
2018-07-28T05:10:18.152Z,57.79
2018-07-28T05:12:23.053Z,57.67
2018-07-28T05:14:27.799Z,57.38
2018-07-28T05:16:32.675Z,56.81
2018-07-28T05:18:37.543Z,56.03
2018-07-28T05:20:42.546Z,56.21
2018-07-28T05:22:47.306Z,55.55
2018-07-28T05:24:52.037Z,55.63
2018-07-28T05:26:56.834Z,55.88
2018-07-28T05:29:01.720Z,55.27
2018-07-28T05:31:06.589Z,55.80
2018-07-28T05:33:11.368Z,56.19
2018-07-28T05:35:16.480Z,55.76
2018-07-28T05:37:21.566Z,55.98
2018-07-28T05:39:26.453Z,56.19
2018-07-28T05:41:31.327Z,55.93
2018-07-28T05:43:36.883Z,56.49
2018-07-28T05:45:41.694Z,56.00
2018-07-28T05:47:46.645Z,54.90
2018-07-28T05:49:51.409Z,54.62
2018-07-28T05:51:56.200Z,54.38
2018-07-28T05:54:00.993Z,54.38
2018-07-28T05:56:06.060Z,55.28
2018-07-28T05:58:10.989Z,54.94
2018-07-28T06:00:15.848Z,54.91
2018-07-28T06:02:20.708Z,54.52
2018-07-28T06:04:25.475Z,55.91
2018-07-28T06:06:30.457Z,56.38
2018-07-28T06:08:35.512Z,56.70
2018-07-28T06:10:40.266Z,57.72
2018-07-28T06:12:44.997Z,59.42
2018-07-28T06:14:49.725Z,59.72
2018-07-28T06:16:54.461Z,59.71
2018-07-28T06:18:59.384Z,62.84
2018-07-28T06:21:04.309Z,64.92
2018-07-28T06:23:09.064Z,66.40
2018-07-28T06:25:13.920Z,67.21
2018-07-28T06:27:18.721Z,67.20
2018-07-28T06:29:23.480Z,69.80
2018-07-28T06:31:28.954Z,70.30
2018-07-28T06:33:33.833Z,71.65
2018-07-28T06:35:38.905Z,72.28
2018-07-28T06:37:44.298Z,72.11
2018-07-28T06:39:49.901Z,73.15
2018-07-28T06:41:54.776Z,74.23
2018-07-28T06:44:03.716Z,74.75
2018-07-28T06:46:09.008Z,74.45
2018-07-28T06:48:13.800Z,72.94
2018-07-28T06:50:18.813Z,73.42
2018-07-28T06:52:23.660Z,72.84
2018-07-28T06:54:29.181Z,72.46
2018-07-28T06:56:34.215Z,73.11
2018-07-28T06:58:39.106Z,72.55
2018-07-28T07:00:44.270Z,69.22
2018-07-28T07:02:49.399Z,68.64
2018-07-28T07:04:55.084Z,69.51
2018-07-28T07:07:00.084Z,67.81
2018-07-28T07:09:08.363Z,67.01
2018-07-28T07:11:13.366Z,66.44
2018-07-28T07:13:18.419Z,65.64
2018-07-28T07:15:23.271Z,67.08
2018-07-28T07:17:28.269Z,66.72
2018-07-28T07:19:33.161Z,66.20
2018-07-28T07:21:38.676Z,61.69
2018-07-28T07:23:43.514Z,61.85
2018-07-28T07:25:48.365Z,62.37
2018-07-28T07:27:53.355Z,63.48
2018-07-28T07:29:58.287Z,60.99
2018-07-28T07:32:03.154Z,61.94
2018-07-28T07:34:09.245Z,62.68
2018-07-28T07:36:14.349Z,64.11
2018-07-28T07:38:19.770Z,61.06
2018-07-28T07:40:24.538Z,61.96
2018-07-28T07:42:29.512Z,61.35
2018-07-28T07:44:34.356Z,61.84
2018-07-28T07:46:39.528Z,62.28
2018-07-28T07:48:44.434Z,63.07
2018-07-28T07:50:49.261Z,61.58
2018-07-28T07:52:54.396Z,61.16
2018-07-28T07:54:59.252Z,62.05
2018-07-28T07:57:04.059Z,61.98
2018-07-28T07:59:09.030Z,61.07
2018-07-28T08:01:14.019Z,62.13
2018-07-28T08:03:19.062Z,60.32
2018-07-28T08:05:24.961Z,58.60
2018-07-28T08:07:30.353Z,60.19
2018-07-28T08:09:35.171Z,60.49
2018-07-28T08:11:40.417Z,61.65
2018-07-28T08:13:45.239Z,60.48
2018-07-28T08:15:50.525Z,61.31
2018-07-28T08:17:55.543Z,60.66
2018-07-28T08:20:00.453Z,61.56
2018-07-28T08:22:06.608Z,61.68
2018-07-28T08:24:11.637Z,61.83
2018-07-28T08:26:17.058Z,62.10
2018-07-28T08:28:22.239Z,63.23
2018-07-28T08:30:27.248Z,62.03
2018-07-28T08:32:32.203Z,62.41
2018-07-28T08:34:37.416Z,62.04
2018-07-28T08:36:42.929Z,61.43
2018-07-28T08:38:47.982Z,60.91
2018-07-28T08:40:52.926Z,60.87
2018-07-28T08:42:58.103Z,59.59
2018-07-28T08:45:03.062Z,59.18
2018-07-28T08:47:08.115Z,59.33
2018-07-28T08:49:12.999Z,59.53
2018-07-28T08:51:17.881Z,59.45
2018-07-28T08:53:22.692Z,58.85
2018-07-28T08:55:27.841Z,58.67
2018-07-28T08:57:32.622Z,59.25
2018-07-28T08:59:37.406Z,57.25
2018-07-28T09:01:42.256Z,57.22
2018-07-28T09:03:47.295Z,58.26
2018-07-28T09:10:42.825Z,58.69
2018-07-28T09:12:49.115Z,57.91
2018-07-28T09:14:54.147Z,57.49
2018-07-28T09:16:58.982Z,56.73
2018-07-28T09:19:06.299Z,56.12
2018-07-28T09:21:11.151Z,55.98
2018-07-28T09:23:15.990Z,56.94
2018-07-28T09:25:20.685Z,56.74
2018-07-28T09:27:25.637Z,56.06
2018-07-28T09:29:30.662Z,54.26
2018-07-28T09:31:35.703Z,54.38
2018-07-28T09:33:40.694Z,53.68
2018-07-28T09:35:45.152Z,52.50
2018-07-28T09:37:50.322Z,51.00
2018-07-28T09:39:55.484Z,49.87
2018-07-28T09:42:00.538Z,51.26
2018-07-28T09:44:05.477Z,50.79
2018-07-28T09:46:10.519Z,51.10
2018-07-28T09:50:25.500Z,51.73
2018-07-28T09:52:30.083Z,52.35
2018-07-28T09:54:34.970Z,51.44
2018-07-28T09:56:40.126Z,51.67
2018-07-28T09:58:45.445Z,50.95
2018-07-28T10:00:55.253Z,51.19
2018-07-28T10:03:00.158Z,51.96
2018-07-28T10:05:05.099Z,52.11
2018-07-28T10:07:10.018Z,51.48
2018-07-28T10:09:15.587Z,51.88
2018-07-28T10:11:20.660Z,50.91
2018-07-28T10:13:26.192Z,49.94
2018-07-28T10:15:31.313Z,50.22
2018-07-28T10:17:35.890Z,50.11
2018-07-28T10:19:40.877Z,50.86
2018-07-28T10:21:45.681Z,50.36
2018-07-28T10:23:50.243Z,50.36
2018-07-28T10:25:55.089Z,50.77
2018-07-28T10:28:00.100Z,50.61
2018-07-28T10:30:06.083Z,49.77
2018-07-28T10:32:11.337Z,50.05
2018-07-28T10:34:16.204Z,50.38
2018-07-28T10:36:21.130Z,50.25
2018-07-28T10:38:26.030Z,49.68
2018-07-28T10:40:30.827Z,50.53
2018-07-28T10:42:36.165Z,49.63
2018-07-28T10:44:41.497Z,49.66
2018-07-28T10:46:46.496Z,50.42
2018-07-28T10:48:53.521Z,49.86
2018-07-28T10:50:58.373Z,50.25
2018-07-28T10:53:03.193Z,50.70
2018-07-28T10:55:07.995Z,50.85
2018-07-28T10:57:12.893Z,51.71
2018-07-28T10:59:17.783Z,49.23
2018-07-28T11:01:22.506Z,48.70
2018-07-28T11:03:27.366Z,49.60
2018-07-28T11:05:32.157Z,49.93
2018-07-28T11:07:36.934Z,48.72
2018-07-28T11:09:41.871Z,48.45
2018-07-28T11:11:46.953Z,49.97
2018-07-28T11:13:51.749Z,49.56
2018-07-28T11:15:56.518Z,49.69
2018-07-28T11:18:01.251Z,50.01
2018-07-28T11:20:08.828Z,49.61
2018-07-28T11:22:13.246Z,48.47
2018-07-28T11:24:18.156Z,49.02
2018-07-28T11:26:23.160Z,48.83
2018-07-28T11:28:27.867Z,49.63
2018-07-28T11:30:32.754Z,49.85
2018-07-28T11:32:54.152Z,49.12
2018-07-28T11:35:15.299Z,49.08
2018-07-28T11:38:08.339Z,49.26
2018-07-28T11:42:34.671Z,48.59
2018-07-28T11:45:08.604Z,46.58
2018-07-28T11:47:13.820Z,46.95
2018-07-28T11:49:18.624Z,46.25
2018-07-28T11:51:23.533Z,46.86
2018-07-28T11:53:28.284Z,46.33
2018-07-28T11:55:33.118Z,42.94
2018-07-28T11:57:37.866Z,42.43
2018-07-28T11:59:42.685Z,42.57
2018-07-28T12:01:48.231Z,42.86
2018-07-28T12:03:52.953Z,43.21
2018-07-28T12:05:57.768Z,42.61
2018-07-28T12:08:02.500Z,42.99
2018-07-28T12:10:09.069Z,43.10
2018-07-28T12:12:13.804Z,43.01
2018-07-28T12:14:18.792Z,43.30
2018-07-28T12:16:23.639Z,43.16
2018-07-28T12:18:28.491Z,42.10
2018-07-28T12:20:33.135Z,42.72
2018-07-28T12:22:38.094Z,42.21
2018-07-28T12:24:43.082Z,42.14
2018-07-28T12:26:48.276Z,43.07
2018-07-28T12:28:53.143Z,42.98
2018-07-28T12:30:57.963Z,42.85
2018-07-28T12:33:02.884Z,42.16
2018-07-28T12:35:07.938Z,42.92
2018-07-28T12:37:12.685Z,43.98
2018-07-28T12:39:17.407Z,43.29
2018-07-28T12:41:22.075Z,42.71
2018-07-28T12:43:26.840Z,42.83
2018-07-28T12:45:31.581Z,42.72
2018-07-28T12:47:36.426Z,42.68
2018-07-28T12:49:41.846Z,42.78
2018-07-28T12:51:46.639Z,41.14
2018-07-28T12:53:51.408Z,41.60
2018-07-28T12:55:56.201Z,41.05
2018-07-28T12:58:01.051Z,41.19
2018-07-28T13:00:06.074Z,41.54
2018-07-28T13:02:10.830Z,41.50
2018-07-28T13:04:15.963Z,41.57
2018-07-28T13:06:20.895Z,41.35
2018-07-28T13:08:25.664Z,42.39
2018-07-28T13:10:30.734Z,42.76
2018-07-28T13:12:35.644Z,40.36
2018-07-28T13:14:40.499Z,41.69
2018-07-28T13:16:45.212Z,40.53
2018-07-28T13:18:50.017Z,40.65
2018-07-28T13:20:55.386Z,41.16
2018-07-28T13:23:00.123Z,41.41
2018-07-28T13:25:06.089Z,41.62
2018-07-28T13:27:11.264Z,40.58
2018-07-28T13:29:15.987Z,41.25
2018-07-28T13:31:21.178Z,40.91
2018-07-28T13:33:26.198Z,40.95
2018-07-28T13:35:31.049Z,40.78
2018-07-28T13:37:36.349Z,38.65
2018-07-28T13:39:41.253Z,39.78
2018-07-28T13:41:46.424Z,38.54
2018-07-28T13:43:51.839Z,40.26
2018-07-28T13:45:56.652Z,38.30
2018-07-28T13:48:01.422Z,38.69
2018-07-28T13:50:06.462Z,39.37
2018-07-28T13:52:11.559Z,38.84
2018-07-28T13:54:16.308Z,39.04
2018-07-28T13:56:21.439Z,38.79
2018-07-28T13:58:26.526Z,38.28
2018-07-28T14:00:31.205Z,37.67
2018-07-28T14:02:36.049Z,36.84
2018-07-28T14:04:40.872Z,37.51
2018-07-28T14:06:45.734Z,38.94
2018-07-28T14:08:50.568Z,37.31
2018-07-28T14:10:55.422Z,37.30
2018-07-28T14:13:00.160Z,36.75
2018-07-28T14:15:05.545Z,36.97
2018-07-28T14:17:10.317Z,37.74
2018-07-28T14:19:15.245Z,38.61
2018-07-28T14:21:20.154Z,39.28
2018-07-28T14:23:25.186Z,38.13
2018-07-28T14:25:29.977Z,39.88
2018-07-28T14:27:34.928Z,39.31
2018-07-28T14:29:39.616Z,38.63
2018-07-28T14:31:44.464Z,39.21
2018-07-28T14:33:49.499Z,39.05
2018-07-28T14:35:55.608Z,40.04
2018-07-28T14:38:00.526Z,39.72
2018-07-28T14:40:05.626Z,39.34
2018-07-28T14:42:10.655Z,39.40
2018-07-28T14:44:15.444Z,39.89
2018-07-28T14:46:20.380Z,40.78
2018-07-28T14:48:25.168Z,39.44
2018-07-28T14:50:30.164Z,39.24
2018-07-28T14:52:35.040Z,39.76
2018-07-28T14:54:39.921Z,40.28
2018-07-28T14:56:44.723Z,40.89
2018-07-28T14:58:49.598Z,42.10
2018-07-28T15:00:54.452Z,40.89
2018-07-28T15:02:59.368Z,41.64
2018-07-28T15:05:04.345Z,42.03
2018-07-28T15:07:09.474Z,42.39
2018-07-28T15:09:14.303Z,41.52
2018-07-28T15:11:19.508Z,41.79
2018-07-28T15:13:24.784Z,41.21
2018-07-28T15:15:29.575Z,42.41
2018-07-28T15:17:34.628Z,42.96
2018-07-28T15:19:39.601Z,41.20
2018-07-28T15:21:44.461Z,42.26
2018-07-28T15:23:49.471Z,41.67
2018-07-28T15:25:54.661Z,41.35
2018-07-28T15:27:59.824Z,43.38
2018-07-28T15:30:05.199Z,42.54
2018-07-28T15:32:10.107Z,42.27
2018-07-28T15:34:15.071Z,42.29
2018-07-28T15:36:20.122Z,41.71
2018-07-28T15:38:25.043Z,40.93
2018-07-28T15:40:30.003Z,39.92
2018-07-28T15:42:35.024Z,40.87
2018-07-28T15:44:39.962Z,39.75
2018-07-28T15:46:46.294Z,39.54
2018-07-28T15:48:51.442Z,38.84
2018-07-28T15:50:56.549Z,39.50
2018-07-28T15:53:01.462Z,39.14
2018-07-28T15:55:06.685Z,39.02
2018-07-28T15:57:11.482Z,39.59
2018-07-28T15:59:16.327Z,38.78
2018-07-28T16:01:21.118Z,37.04
2018-07-28T16:03:26.011Z,37.63
2018-07-28T16:05:30.756Z,37.01
2018-07-28T16:07:35.880Z,37.16
2018-07-28T16:09:41.248Z,37.73
2018-07-28T16:11:46.205Z,37.90
2018-07-28T16:13:51.066Z,38.68
2018-07-28T16:15:55.840Z,39.25
2018-07-28T16:18:00.584Z,39.17
2018-07-28T16:20:05.519Z,39.29
2018-07-28T16:22:10.291Z,39.08
2018-07-28T16:24:14.712Z,39.17
2018-07-28T16:26:19.610Z,39.16
2018-07-28T16:28:24.303Z,39.07
2018-07-28T16:30:29.030Z,39.12
2018-07-28T16:32:33.970Z,39.08
2018-07-28T16:34:38.731Z,38.77
2018-07-28T16:36:44.174Z,39.27
2018-07-28T16:38:48.865Z,39.55
2018-07-28T16:40:53.724Z,40.63
2018-07-28T16:42:58.512Z,39.61
2018-07-28T16:45:04.116Z,41.50
2018-07-28T16:47:09.392Z,41.54
2018-07-28T16:49:14.168Z,41.79
2018-07-28T16:51:19.039Z,42.04
2018-07-28T16:53:24.449Z,42.34
2018-07-28T16:55:29.224Z,42.06
2018-07-28T16:57:34.053Z,43.32
2018-07-28T16:59:38.916Z,42.80
2018-07-28T17:01:43.620Z,42.41
2018-07-28T17:03:48.533Z,42.85
2018-07-28T17:05:53.262Z,43.39
2018-07-28T17:07:58.193Z,41.67
2018-07-28T17:10:03.003Z,41.91
2018-07-28T17:12:09.667Z,42.27
2018-07-28T17:14:14.418Z,41.28
2018-07-28T17:16:19.236Z,41.99
2018-07-28T17:18:24.233Z,41.46
2018-07-28T17:20:29.051Z,41.62
2018-07-28T17:22:33.818Z,40.11
2018-07-28T17:24:38.192Z,40.18
2018-07-28T17:26:43.029Z,40.81
2018-07-28T17:28:47.753Z,40.78
2018-07-28T17:30:52.675Z,39.97
2018-07-28T17:32:57.493Z,41.08
2018-07-28T17:35:02.528Z,41.35
2018-07-28T17:37:07.560Z,40.69
2018-07-28T17:39:12.733Z,39.97
2018-07-28T17:41:17.668Z,39.99
2018-07-28T17:43:22.598Z,39.64
2018-07-28T17:45:27.683Z,39.69
2018-07-28T17:47:32.458Z,39.08
2018-07-28T17:49:37.217Z,39.38
2018-07-28T17:51:42.014Z,40.09
2018-07-28T17:53:46.823Z,40.52
2018-07-28T17:55:51.531Z,40.82
2018-07-28T17:57:56.242Z,40.72
2018-07-28T18:00:01.169Z,39.47
2018-07-28T18:02:06.122Z,39.84
2018-07-28T18:04:10.819Z,40.20
2018-07-28T18:06:15.637Z,40.38
2018-07-28T18:08:20.347Z,39.75
2018-07-28T18:10:25.198Z,39.61
2018-07-28T18:12:30.414Z,39.47
2018-07-28T18:14:35.619Z,38.21
2018-07-28T18:16:40.322Z,38.33
2018-07-28T18:18:44.675Z,38.01
2018-07-28T18:20:49.652Z,37.98
2018-07-28T18:22:54.390Z,38.51
2018-07-28T18:24:59.986Z,38.63
2018-07-28T18:27:04.948Z,38.45
2018-07-28T18:29:09.696Z,38.27
2018-07-28T18:31:14.583Z,38.58
2018-07-28T18:33:19.415Z,38.07
2018-07-28T18:35:24.358Z,37.58
2018-07-28T18:37:29.173Z,38.03
2018-07-28T18:39:33.931Z,38.43
2018-07-28T18:41:38.728Z,38.04
2018-07-28T18:43:43.612Z,37.66
2018-07-28T18:45:48.280Z,38.00
2018-07-28T18:47:53.046Z,38.74
2018-07-28T18:49:57.818Z,37.99
2018-07-28T18:52:02.613Z,37.82
2018-07-28T18:54:07.346Z,39.08
2018-07-28T18:56:12.038Z,38.11
2018-07-28T18:58:16.842Z,38.82
2018-07-28T19:00:21.251Z,38.95
2018-07-28T19:02:26.019Z,38.37
2018-07-28T19:04:30.754Z,39.37
2018-07-28T19:06:35.596Z,39.10
2018-07-28T19:08:40.957Z,38.47
2018-07-28T19:10:45.944Z,39.17
2018-07-28T19:12:56.165Z,39.46
2018-07-28T19:15:01.200Z,39.07
2018-07-28T19:17:06.071Z,39.19
2018-07-28T19:19:17.253Z,39.50
2018-07-28T19:21:22.095Z,40.89
2018-07-28T19:23:31.907Z,40.60
2018-07-28T19:25:36.700Z,41.07
2018-07-28T19:27:45.413Z,41.02
2018-07-28T19:29:50.596Z,40.56
2018-07-28T19:31:55.851Z,40.23
2018-07-28T19:34:00.988Z,40.90
2018-07-28T19:36:11.200Z,40.99
2018-07-28T19:38:16.169Z,41.21
2018-07-28T19:40:21.224Z,41.07
2018-07-28T19:42:31.133Z,40.56
2018-07-28T19:44:36.046Z,41.24
2018-07-28T19:46:41.277Z,40.53
2018-07-28T19:48:48.532Z,41.26
2018-07-28T19:50:53.243Z,40.87
2018-07-28T19:52:59.248Z,40.81
2018-07-28T19:55:04.297Z,40.21
2018-07-28T19:57:09.160Z,40.66
2018-07-28T19:59:14.276Z,40.86
2018-07-28T20:01:19.282Z,40.61
2018-07-28T20:03:23.849Z,40.70
2018-07-28T20:05:28.773Z,40.52
2018-07-28T20:07:33.401Z,40.12
2018-07-28T20:09:38.408Z,39.92
2018-07-28T20:11:43.424Z,40.15
2018-07-28T20:13:48.423Z,40.16
2018-07-28T20:15:53.361Z,40.90
2018-07-28T20:17:58.407Z,40.77
2018-07-28T20:20:03.233Z,41.22
2018-07-28T20:22:08.251Z,40.38
2018-07-28T20:24:13.255Z,39.49
2018-07-28T20:26:18.194Z,39.36
2018-07-28T20:28:23.084Z,39.70
2018-07-28T20:30:27.922Z,40.14
2018-07-28T20:32:32.747Z,39.64
2018-07-28T20:34:37.685Z,39.60
2018-07-28T20:36:42.609Z,39.66
2018-07-28T20:38:47.380Z,40.75
2018-07-28T20:40:52.193Z,40.95
2018-07-28T20:42:56.635Z,41.06
2018-07-28T20:45:01.384Z,41.46
2018-07-28T20:47:08.183Z,41.83
2018-07-28T20:49:13.314Z,41.36
2018-07-28T20:51:18.159Z,41.17
2018-07-28T20:53:23.075Z,41.52
2018-07-28T20:55:28.124Z,42.17
2018-07-28T20:57:32.521Z,40.93
2018-07-28T20:59:37.516Z,41.39
2018-07-28T21:01:42.217Z,41.74
2018-07-28T21:03:46.936Z,40.40
2018-07-28T21:05:51.629Z,40.19
2018-07-28T21:07:56.705Z,40.20
2018-07-28T21:10:01.477Z,39.91
2018-07-28T21:12:06.757Z,40.91
2018-07-28T21:14:11.878Z,41.20
2018-07-28T21:16:16.812Z,39.67
2018-07-28T21:18:21.493Z,40.05
2018-07-28T21:20:26.727Z,39.43
2018-07-28T21:22:32.013Z,40.09
2018-07-28T21:24:37.562Z,39.15
2018-07-28T21:26:42.489Z,39.07
2018-07-28T21:28:47.576Z,40.02
2018-07-28T21:30:52.485Z,39.96
2018-07-28T21:32:57.236Z,39.34
2018-07-28T21:35:02.241Z,40.41
2018-07-28T21:37:07.195Z,39.71
2018-07-28T21:39:12.239Z,40.42
2018-07-28T21:41:16.992Z,40.74
2018-07-28T21:43:21.690Z,40.59
2018-07-28T21:45:26.764Z,40.77
2018-07-28T21:47:31.569Z,40.85
2018-07-28T21:49:36.364Z,41.06
2018-07-28T21:51:41.108Z,40.64
2018-07-28T21:53:45.876Z,41.28
2018-07-28T21:55:50.550Z,42.11
2018-07-28T21:57:55.245Z,42.31
2018-07-28T21:59:59.971Z,42.34
2018-07-28T22:02:04.722Z,42.52
2018-07-28T22:04:09.453Z,42.70
2018-07-28T22:06:14.269Z,43.75
2018-07-28T22:08:18.967Z,43.64
2018-07-28T22:10:24.081Z,44.42
2018-07-28T22:12:29.056Z,45.38
2018-07-28T22:14:33.748Z,45.53
2018-07-28T22:16:38.522Z,45.89
2018-07-28T22:18:43.414Z,46.62
2018-07-28T22:20:48.562Z,47.69
2018-07-28T22:22:53.464Z,48.21
2018-07-28T22:24:59.416Z,49.25
2018-07-28T22:27:04.402Z,48.85
2018-07-28T22:29:09.421Z,49.73
2018-07-28T22:31:14.284Z,49.79
2018-07-28T22:33:19.270Z,49.81
2018-07-28T22:35:24.070Z,50.34
2018-07-28T22:37:29.090Z,49.02
2018-07-28T22:39:33.797Z,49.35
2018-07-28T22:41:38.563Z,48.19
2018-07-28T22:43:43.512Z,47.60
2018-07-28T22:45:48.474Z,48.01
2018-07-28T22:47:53.145Z,48.18
2018-07-28T22:49:57.803Z,47.96
2018-07-28T22:52:02.531Z,47.77
2018-07-28T22:54:07.249Z,48.06
2018-07-28T22:56:11.905Z,48.65
2018-07-28T22:58:16.580Z,48.86
2018-07-28T23:00:21.361Z,48.91
2018-07-28T23:02:26.170Z,48.43
2018-07-28T23:04:31.107Z,48.41
2018-07-28T23:06:35.926Z,48.98
2018-07-28T23:08:40.672Z,50.15
2018-07-28T23:10:45.403Z,50.70
2018-07-28T23:12:50.215Z,51.43
2018-07-28T23:14:54.937Z,51.47
2018-07-28T23:16:59.718Z,51.56
2018-07-28T23:19:04.431Z,52.09
2018-07-28T23:21:09.342Z,52.21
2018-07-28T23:23:14.195Z,52.88
2018-07-28T23:25:18.929Z,52.89
2018-07-28T23:27:23.638Z,51.98
2018-07-28T23:29:28.338Z,52.55
2018-07-28T23:31:34.014Z,52.22
2018-07-28T23:33:38.682Z,52.97
2018-07-28T23:35:43.332Z,52.68
2018-07-28T23:37:48.084Z,52.76
2018-07-28T23:39:52.910Z,52.71
2018-07-28T23:41:57.684Z,52.52
2018-07-28T23:44:02.378Z,52.25
2018-07-28T23:46:07.239Z,52.61
2018-07-28T23:48:12.279Z,53.00
2018-07-28T23:50:17.185Z,52.96
2018-07-28T23:52:22.207Z,52.91
2018-07-28T23:54:27.120Z,53.18
2018-07-28T23:56:32.203Z,53.22
2018-07-28T23:58:37.465Z,52.93
